Time;durP1;ratioP1;P1;durP2;ratioP2;P2;SDS_P1;SDS_P2;PMS_P1;PMS_P2;Temp;Humidity;BMP_temperature;BMP_pressure;BME280_temperature;BME280_humidity;BME280_pressure;Samples;Min_cycle;Max_cycle;Signal;HPM_P1;HPM_P2
2024/04/20 00:01:25;;;;;;;;;;;;;;;;;;5378857;26;19925;-70
2024/04/20 00:03:51;;;;;;;;;;;;;;;;;;5373017;26;20752;-69
2024/04/20 00:06:17;;;;;;;;;;;;;;;;;;5376606;26;19925;-69
2024/04/20 00:08:43;;;;;;;;;;;;;;;;;;5358014;26;19961;-69
2024/04/20 00:11:09;;;;;;;;;;;;;;;;;;5374707;26;20016;-69
2024/04/20 00:13:37;;;;;;;;;;;;;;;;;;5365198;26;20470;-69
2024/04/20 00:16:03;;;;;;;;;;;;;;;;;;5361776;26;19973;-72
2024/04/20 00:18:29;;;;;;;;;;;;;;;;;;5379725;26;19925;-69
2024/04/20 00:20:55;;;;;;;;;;;;;;;;;;5383685;26;19924;-69
2024/04/20 00:23:21;;;;;;;;;;;;;;;;;;5364529;26;20066;-69
2024/04/20 00:25:47;;;;;;;;;;;;;;;;;;5381857;26;19925;-69
2024/04/20 00:28:13;;;;;;;;;;;;;;;;;;5374396;26;19939;-70
2024/04/20 00:30:39;;;;;;;;;;;;;;;;;;5374726;26;20744;-72
2024/04/20 00:33:05;;;;;;;;;;;;;;;;;;5354897;26;19925;-69
2024/04/20 00:35:31;;;;;;;;;;;;;;;;;;5362685;26;19933;-69
2024/04/20 00:37:57;;;;;;;;;;;;;;;;;;5353974;26;20560;-69
2024/04/20 00:40:23;;;;;;;;;;;;;;;;;;5379288;26;20050;-69
2024/04/20 00:42:49;;;;;;;;;;;;;;;;;;5371528;26;21316;-69
2024/04/20 00:45:15;;;;;;;;;;;;;;;;;;5386346;26;19937;-69
2024/04/20 00:47:41;;;;;;;;;;;;;;;;;;5372860;26;19925;-69
2024/04/20 00:50:07;;;;;;;;;;;;;;;;;;5370902;26;19925;-69
2024/04/20 00:52:33;;;;;;;;;;;;;;;;;;5377759;26;20704;-68
2024/04/20 00:54:59;;;;;;;;;;;;;;;;;;5372799;26;19977;-69
2024/04/20 00:57:25;;;;;;;;;;;;;;;;;;5365294;26;21039;-69
2024/04/20 00:59:51;;;;;;;;;;;;;;;;;;5361676;26;20421;-69
2024/04/20 01:02:17;;;;;;;;;;;;;;;;;;5370320;26;20397;-69
2024/04/20 01:04:43;;;;;;;;;;;;;;;;;;5369121;26;19932;-69
2024/04/20 01:07:09;;;;;;;;;;;;;;;;;;5369387;26;19953;-69
2024/04/20 01:09:35;;;;;;;;;;;;;;;;;;5375150;26;19937;-69
2024/04/20 01:12:01;;;;;;;;;;;;;;;;;;5371933;26;21942;-69
2024/04/20 01:14:27;;;;;;;;;;;;;;;;;;5375617;26;19924;-69
2024/04/20 01:16:53;;;;;;;;;;;;;;;;;;5375873;26;19932;-69
2024/04/20 01:19:22;;;;;;;;;;;;;;;;;;5374332;26;20721;-69
2024/04/20 01:21:48;;;;;;;;;;;;;;;;;;5382955;26;19925;-69
2024/04/20 01:24:14;;;;;;;;;;;;;;;;;;5371224;26;23697;-69
2024/04/20 01:26:39;;;;;;;;;;;;;;;;;;5380923;26;19926;-69
2024/04/20 01:29:05;;;;;;;;;;;;;;;;;;5376680;26;19932;-69
2024/04/20 01:31:31;;;;;;;;;;;;;;;;;;5380385;26;19933;-69
2024/04/20 01:33:57;;;;;;;;;;;;;;;;;;5348124;26;19933;-69
2024/04/20 01:36:23;;;;;;;;;;;;;;;;;;5370865;26;20020;-69
2024/04/20 01:38:53;;;;;;;;;;;;;;;;;;5375930;26;20800;-69
2024/04/20 01:41:19;;;;;;;;;;;;;;;;;;5390701;26;19932;-69
2024/04/20 01:43:44;;;;;;;;;;;;;;;;;;5377079;26;19933;-69
2024/04/20 01:46:10;;;;;;;;;;;;;;;;;;5369917;26;20964;-69
2024/04/20 01:48:36;;;;;;;;;;;;;;;;;;5376560;26;20058;-69
2024/04/20 01:51:02;;;;;;;;;;;;;;;;;;5354333;26;19928;-69
2024/04/20 01:53:28;;;;;;;;;;;;;;;;;;5375670;26;19984;-70
2024/04/20 01:55:54;;;;;;;;;;;;;;;;;;5376946;26;19931;-69
2024/04/20 01:58:20;;;;;;;;;;;;;;;;;;5376313;26;20031;-69
2024/04/20 02:00:46;;;;;;;;;;;;;;;;;;5375579;26;20521;-69
2024/04/20 02:03:12;;;;;;;;;;;;;;;;;;5368463;26;19937;-68
2024/04/20 02:05:38;;;;;;;;;;;;;;;;;;5366054;26;19932;-69
2024/04/20 02:08:04;;;;;;;;;;;;;;;;;;5373016;26;19938;-68
2024/04/20 02:10:30;;;;;;;;;;;;;;;;;;5375348;26;20262;-68
2024/04/20 02:12:56;;;;;;;;;;;;;;;;;;5372270;26;19936;-69
2024/04/20 02:15:22;;;;;;;;;;;;;;;;;;5362618;26;19935;-68
2024/04/20 02:17:48;;;;;;;;;;;;;;;;;;5373463;26;19932;-68
2024/04/20 02:20:14;;;;;;;;;;;;;;;;;;5367999;26;19965;-68
2024/04/20 02:22:40;;;;;;;;;;;;;;;;;;5377630;26;20373;-69
2024/04/20 02:25:06;;;;;;;;;;;;;;;;;;5366285;26;19925;-69
2024/04/20 02:27:32;;;;;;;;;;;;;;;;;;5377006;26;19931;-69
2024/04/20 02:29:58;;;;;;;;;;;;;;;;;;5364419;26;19944;-69
2024/04/20 02:32:24;;;;;;;;;;;;;;;;;;5380913;26;19932;-69
2024/04/20 02:34:50;;;;;;;;;;;;;;;;;;5363710;26;19940;-69
2024/04/20 02:37:16;;;;;;;;;;;;;;;;;;5391864;26;22299;-69
2024/04/20 02:39:42;;;;;;;;;;;;;;;;;;5387138;26;19932;-69
2024/04/20 02:42:08;;;;;;;;;;;;;;;;;;5376295;26;19924;-69
2024/04/20 02:44:33;;;;;;;;;;;;;;;;;;5384059;26;19997;-68
2024/04/20 02:46:59;;;;;;;;;;;;;;;;;;5373252;26;19925;-68
2024/04/20 02:49:25;;;;;;;;;;;;;;;;;;5370035;26;20948;-68
2024/04/20 02:51:51;;;;;;;;;;;;;;;;;;5363378;26;19943;-68
2024/04/20 02:54:17;;;;;;;;;;;;;;;;;;5359964;26;19925;-68
2024/04/20 02:56:43;;;;;;;;;;;;;;;;;;5368218;26;20283;-68
2024/04/20 02:59:09;;;;;;;;;;;;;;;;;;5358688;26;20622;-69
2024/04/20 03:01:35;;;;;;;;;;;;;;;;;;5384575;26;20737;-69
2024/04/20 03:04:01;;;;;;;;;;;;;;;;;;5373000;26;20009;-69
2024/04/20 03:06:27;;;;;;;;;;;;;;;;;;5385053;26;20563;-68
2024/04/20 03:08:53;;;;;;;;;;;;;;;;;;5383236;26;19932;-69
2024/04/20 03:11:19;;;;;;;;;;;;;;;;;;5356293;26;19932;-69
2024/04/20 03:13:45;;;;;;;;;;;;;;;;;;5366100;26;19924;-68
2024/04/20 03:16:12;;;;;;;;;;;;;;;;;;5359133;26;20664;-68
2024/04/20 03:18:38;;;;;;;;;;;;;;;;;;5375733;26;19924;-69
2024/04/20 03:21:05;;;;;;;;;;;;;;;;;;5360140;26;20256;-68
2024/04/20 03:23:31;;;;;;;;;;;;;;;;;;5362455;26;19940;-68
2024/04/20 03:25:57;;;;;;;;;;;;;;;;;;5369794;26;19937;-69
2024/04/20 03:28:23;;;;;;;;;;;;;;;;;;5392811;26;20032;-68
2024/04/20 03:30:49;;;;;;;;;;;;;;;;;;5355746;26;20933;-68
2024/04/20 03:33:21;;;;;;;;;;;;;;;;;;5360549;26;20694;-68
2024/04/20 03:35:47;;;;;;;;;;;;;;;;;;5362683;26;19941;-68
2024/04/20 03:38:13;;;;;;;;;;;;;;;;;;5375213;26;19924;-68
2024/04/20 03:40:39;;;;;;;;;;;;;;;;;;5367754;26;19933;-68
2024/04/20 03:43:05;;;;;;;;;;;;;;;;;;5374202;26;19932;-69
2024/04/20 03:45:31;;;;;;;;;;;;;;;;;;5381959;26;19933;-68
2024/04/20 03:47:57;;;;;;;;;;;;;;;;;;5364040;26;20480;-68
2024/04/20 03:50:26;;;;;;;;;;;;;;;;;;5385273;26;20026;-68
2024/04/20 03:52:52;;;;;;;;;;;;;;;;;;5368166;26;19955;-68
2024/04/20 03:55:18;;;;;;;;;;;;;;;;;;5401974;26;19932;-68
2024/04/20 03:57:44;;;;;;;;;;;;;;;;;;5398740;26;19925;-69
2024/04/20 04:00:11;;;;;;;;;;;;;;;;;;5376797;26;19925;-69
2024/04/20 04:02:37;;;;;;;;;;;;;;;;;;5366932;26;20823;-69
2024/04/20 04:05:03;;;;;;;;;;;;;;;;;;5370117;26;19933;-69
2024/04/20 04:07:29;;;;;;;;;;;;;;;;;;5385037;26;20501;-70
2024/04/20 04:09:56;;;;;;;;;;;;;;;;;;5354503;26;20736;-69
2024/04/20 04:12:22;;;;;;;;;;;;;;;;;;5365049;26;19925;-69
2024/04/20 04:14:48;;;;;;;;;;;;;;;;;;5382767;26;19933;-69
2024/04/20 04:17:14;;;;;;;;;;;;;;;;;;5373729;26;20042;-68
2024/04/20 04:19:40;;;;;;;;;;;;;;;;;;5381203;26;19976;-69
2024/04/20 04:22:06;;;;;;;;;;;;;;;;;;5373900;26;19925;-70
2024/04/20 04:24:32;;;;;;;;;;;;;;;;;;5387407;26;19940;-69
2024/04/20 04:26:58;;;;;;;;;;;;;;;;;;5372996;26;20824;-69
2024/04/20 04:29:24;;;;;;;;;;;;;;;;;;5379406;26;19924;-69
2024/04/20 04:31:50;;;;;;;;;;;;;;;;;;5364257;26;19929;-69
2024/04/20 04:34:16;;;;;;;;;;;;;;;;;;5375165;26;19933;-69
2024/04/20 04:36:42;;;;;;;;;;;;;;;;;;5378822;26;20836;-69
2024/04/20 04:39:08;;;;;;;;;;;;;;;;;;5374121;26;19947;-69
2024/04/20 04:41:34;;;;;;;;;;;;;;;;;;5378787;26;19944;-70
2024/04/20 04:44:00;;;;;;;;;;;;;;;;;;5355772;26;19940;-68
2024/04/20 04:46:26;;;;;;;;;;;;;;;;;;5380245;26;20375;-69
2024/04/20 04:48:52;;;;;;;;;;;;;;;;;;5377500;26;20489;-69
2024/04/20 04:51:20;;;;;;;;;;;;;;;;;;5362015;26;20021;-69
2024/04/20 04:53:46;;;;;;;;;;;;;;;;;;5373923;26;19932;-70
2024/04/20 04:56:12;;;;;;;;;;;;;;;;;;5384100;26;19949;-70
2024/04/20 04:58:38;;;;;;;;;;;;;;;;;;5395611;26;19931;-70
2024/04/20 05:01:04;;;;;;;;;;;;;;;;;;5371901;26;20654;-72
2024/04/20 05:03:31;;;;;;;;;;;;;;;;;;5374625;26;19925;-70
2024/04/20 05:05:57;;;;;;;;;;;;;;;;;;5389600;26;19925;-70
2024/04/20 05:08:26;;;;;;;;;;;;;;;;;;5375223;26;20380;-70
2024/04/20 05:10:52;;;;;;;;;;;;;;;;;;5373912;26;19932;-70
2024/04/20 05:13:18;;;;;;;;;;;;;;;;;;5369341;26;19933;-70
2024/04/20 05:15:44;;;;;;;;;;;;;;;;;;5375182;26;20359;-70
2024/04/20 05:18:11;;;;;;;;;;;;;;;;;;5365820;26;19924;-70
2024/04/20 05:20:37;;;;;;;;;;;;;;;;;;5363928;26;19925;-69
2024/04/20 05:23:03;;;;;;;;;;;;;;;;;;5348484;26;19939;-70
2024/04/20 05:25:29;;;;;;;;;;;;;;;;;;5381757;26;19932;-70
2024/04/20 05:27:55;;;;;;;;;;;;;;;;;;5367748;26;19993;-69
2024/04/20 05:30:21;;;;;;;;;;;;;;;;;;5374846;26;19928;-70
2024/04/20 05:32:47;;;;;;;;;;;;;;;;;;5365069;26;19933;-70
2024/04/20 05:35:13;;;;;;;;;;;;;;;;;;5373436;26;20628;-70
2024/04/20 05:37:39;;;;;;;;;;;;;;;;;;5391286;26;19937;-68
2024/04/20 05:40:05;;;;;;;;;;;;;;;;;;5371624;26;20743;-70
2024/04/20 05:42:31;;;;;;;;;;;;;;;;;;5353547;26;20315;-68
2024/04/20 05:44:57;;;;;;;;;;;;;;;;;;5371556;26;20001;-68
2024/04/20 05:47:23;;;;;;;;;;;;;;;;;;5370054;26;19932;-71
2024/04/20 05:49:49;;;;;;;;;;;;;;;;;;5380858;26;19932;-70
2024/04/20 05:52:15;;;;;;;;;;;;;;;;;;5372790;26;19978;-69
2024/04/20 05:54:41;;;;;;;;;;;;;;;;;;5371740;26;19941;-70
2024/04/20 05:57:07;;;;;;;;;;;;;;;;;;5370182;26;19999;-70
2024/04/20 05:59:33;;;;;;;;;;;;;;;;;;5371431;26;19933;-70
2024/04/20 06:01:59;;;;;;;;;;;;;;;;;;5355135;26;20836;-70
2024/04/20 06:04:25;;;;;;;;;;;;;;;;;;5369113;26;19945;-70
2024/04/20 06:06:51;;;;;;;;;;;;;;;;;;5373454;26;19925;-70
2024/04/20 06:09:17;;;;;;;;;;;;;;;;;;5372525;26;20932;-70
2024/04/20 06:11:43;;;;;;;;;;;;;;;;;;5401954;26;19925;-70
2024/04/20 06:14:09;;;;;;;;;;;;;;;;;;5397234;26;19925;-70
2024/04/20 06:16:35;;;;;;;;;;;;;;;;;;5373638;26;19932;-70
2024/04/20 06:19:01;;;;;;;;;;;;;;;;;;5363466;26;19936;-70
2024/04/20 06:21:27;;;;;;;;;;;;;;;;;;5356751;26;20006;-70
2024/04/20 06:23:53;;;;;;;;;;;;;;;;;;5378108;26;20939;-70
2024/04/20 06:26:19;;;;;;;;;;;;;;;;;;5352340;26;19932;-70
2024/04/20 06:28:45;;;;;;;;;;;;;;;;;;5378912;26;19941;-70
2024/04/20 06:31:11;;;;;;;;;;;;;;;;;;5368203;26;19925;-70
2024/04/20 06:33:36;;;;;;;;;;;;;;;;;;5359344;26;19932;-70
2024/04/20 06:36:02;;;;;;;;;;;;;;;;;;5361581;26;20374;-70
2024/04/20 06:38:28;;;;;;;;;;;;;;;;;;5372615;26;20131;-69
2024/04/20 06:40:56;;;;;;;;;;;;;;;;;;5373104;26;19925;-70
2024/04/20 06:43:22;;;;;;;;;;;;;;;;;;5374216;26;19933;-70
2024/04/20 06:45:48;;;;;;;;;;;;;;;;;;5358037;26;20485;-69
2024/04/20 06:48:14;;;;;;;;;;;;;;;;;;5369682;26;26991;-69
2024/04/20 06:50:40;;;;;;;;;;;;;;;;;;5373860;26;19932;-70
2024/04/20 06:53:06;;;;;;;;;;;;;;;;;;5364798;26;20269;-69
2024/04/20 06:55:32;;;;;;;;;;;;;;;;;;5373693;26;19932;-69
2024/04/20 06:57:58;;;;;;;;;;;;;;;;;;5366610;26;20020;-69
2024/04/20 07:00:24;;;;;;;;;;;;;;;;;;5371341;26;20558;-69
2024/04/20 07:02:50;;;;;;;;;;;;;;;;;;5367621;26;20029;-70
2024/04/20 07:05:16;;;;;;;;;;;;;;;;;;5368042;26;23967;-70
2024/04/20 07:07:42;;;;;;;;;;;;;;;;;;5378735;26;19925;-70
2024/04/20 07:10:08;;;;;;;;;;;;;;;;;;5370441;26;19966;-70
2024/04/20 07:12:34;;;;;;;;;;;;;;;;;;5369039;26;19933;-70
2024/04/20 07:15:00;;;;;;;;;;;;;;;;;;5367169;26;20001;-71
2024/04/20 07:17:26;;;;;;;;;;;;;;;;;;5355961;26;19932;-69
2024/04/20 07:19:52;;;;;;;;;;;;;;;;;;5381939;26;19924;-70
2024/04/20 07:22:18;;;;;;;;;;;;;;;;;;5378347;26;19980;-70
2024/04/20 07:24:44;;;;;;;;;;;;;;;;;;5381044;26;19925;-70
2024/04/20 07:27:10;;;;;;;;;;;;;;;;;;5371284;26;19924;-69
2024/04/20 07:29:36;;;;;;;;;;;;;;;;;;5373733;26;20053;-69
2024/04/20 07:32:01;;;;;;;;;;;;;;;;;;5363886;26;19925;-69
2024/04/20 07:34:29;;;;;;;;;;;;;;;;;;5358600;26;19925;-69
2024/04/20 07:36:55;;;;;;;;;;;;;;;;;;5363825;26;19940;-69
2024/04/20 07:39:21;;;;;;;;;;;;;;;;;;5359028;26;19940;-69
2024/04/20 07:41:46;;;;;;;;;;;;;;;;;;5369919;26;20540;-69
2024/04/20 07:44:12;;;;;;;;;;;;;;;;;;5360365;26;19945;-69
2024/04/20 07:46:38;;;;;;;;;;;;;;;;;;5375618;26;19933;-69
2024/04/20 07:49:04;;;;;;;;;;;;;;;;;;5366999;26;19998;-69
2024/04/20 07:51:30;;;;;;;;;;;;;;;;;;5369961;26;19929;-69
2024/04/20 07:53:56;;;;;;;;;;;;;;;;;;5368403;26;19939;-69
2024/04/20 07:56:22;;;;;;;;;;;;;;;;;;5373175;26;19925;-68
2024/04/20 07:58:48;;;;;;;;;;;;;;;;;;5358736;26;21322;-69
2024/04/20 08:01:14;;;;;;;;;;;;;;;;;;5367177;26;19937;-69
2024/04/20 08:03:40;;;;;;;;;;;;;;;;;;5368444;26;20015;-69
2024/04/20 08:06:06;;;;;;;;;;;;;;;;;;5364864;26;20767;-70
2024/04/20 08:08:32;;;;;;;;;;;;;;;;;;5363835;26;20461;-70
2024/04/20 08:10:58;;;;;;;;;;;;;;;;;;5361067;26;19939;-69
2024/04/20 08:13:24;;;;;;;;;;;;;;;;;;5357987;26;19979;-69
2024/04/20 08:15:51;;;;;;;;;;;;;;;;;;5367673;26;19932;-69
2024/04/20 08:18:17;;;;;;;;;;;;;;;;;;5345475;26;20325;-69
2024/04/20 08:20:43;;;;;;;;;;;;;;;;;;5355024;26;19940;-70
2024/04/20 08:23:10;;;;;;;;;;;;;;;;;;5353901;26;19977;-72
2024/04/20 08:25:36;;;;;;;;;;;;;;;;;;5357521;26;19932;-70
2024/04/20 08:28:02;;;;;;;;;;;;;;;;;;5359834;26;19933;-71
2024/04/20 08:30:27;;;;;;;;;;;;;;;;;;5368311;26;19936;-71
2024/04/20 08:32:53;;;;;;;;;;;;;;;;;;5364806;26;20023;-71
2024/04/20 08:35:19;;;;;;;;;;;;;;;;;;5366859;26;20385;-71
2024/04/20 08:37:46;;;;;;;;;;;;;;;;;;5372004;26;19924;-71
2024/04/20 08:40:14;;;;;;;;;;;;;;;;;;5362120;26;19965;-71
2024/04/20 08:42:41;;;;;;;;;;;;;;;;;;5365091;26;19942;-71
2024/04/20 08:45:09;;;;;;;;;;;;;;;;;;5350696;26;19947;-73
2024/04/20 08:47:35;;;;;;;;;;;;;;;;;;5363615;26;20502;-70
2024/04/20 08:50:02;;;;;;;;;;;;;;;;;;5362498;26;20493;-71
2024/04/20 08:52:28;;;;;;;;;;;;;;;;;;5369354;26;20272;-71
2024/04/20 08:54:56;;;;;;;;;;;;;;;;;;5366483;26;19928;-71
2024/04/20 08:57:24;;;;;;;;;;;;;;;;;;5372517;26;19933;-71
2024/04/20 08:59:50;;;;;;;;;;;;;;;;;;5391120;26;19971;-71
2024/04/20 09:02:16;;;;;;;;;;;;;;;;;;5364199;26;20754;-70
2024/04/20 09:04:42;;;;;;;;;;;;;;;;;;5393317;26;19933;-70
2024/04/20 09:07:08;;;;;;;;;;;;;;;;;;5352812;26;19994;-70
2024/04/20 09:09:34;;;;;;;;;;;;;;;;;;5359538;26;19925;-70
2024/04/20 09:12:00;;;;;;;;;;;;;;;;;;5354298;26;19925;-70
2024/04/20 09:14:27;;;;;;;;;;;;;;;;;;5368508;26;20364;-71
2024/04/20 09:16:53;;;;;;;;;;;;;;;;;;5369498;26;19935;-70
2024/04/20 09:19:19;;;;;;;;;;;;;;;;;;5355827;26;20367;-71
2024/04/20 09:21:45;;;;;;;;;;;;;;;;;;5358891;26;19925;-71
2024/04/20 09:24:13;;;;;;;;;;;;;;;;;;5363524;26;20288;-69
2024/04/20 09:26:39;;;;;;;;;;;;;;;;;;5366268;26;19924;-70
2024/04/20 09:29:04;;;;;;;;;;;;;;;;;;5371543;26;20690;-70
2024/04/20 09:31:32;;;;;;;;;;;;;;;;;;5367826;26;22927;-70
2024/04/20 09:33:58;;;;;;;;;;;;;;;;;;5340012;26;19937;-70
2024/04/20 09:36:24;;;;;;;;;;;;;;;;;;5355381;26;23180;-71
2024/04/20 09:38:50;;;;;;;;;;;;;;;;;;5370476;26;19925;-70
2024/04/20 09:41:16;;;;;;;;;;;;;;;;;;5361487;26;20667;-71
2024/04/20 09:43:42;;;;;;;;;;;;;;;;;;5367042;26;20047;-71
2024/04/20 09:46:08;;;;;;;;;;;;;;;;;;5373432;26;19941;-71
2024/04/20 09:48:34;;;;;;;;;;;;;;;;;;5359514;26;20890;-71
2024/04/20 09:51:00;;;;;;;;;;;;;;;;;;5355326;26;19933;-70
2024/04/20 09:53:26;;;;;;;;;;;;;;;;;;5380981;26;20002;-69
2024/04/20 09:55:52;;;;;;;;;;;;;;;;;;5371960;26;20946;-70
2024/04/20 09:58:18;;;;;;;;;;;;;;;;;;5368883;26;19933;-70
2024/04/20 10:00:45;;;;;;;;;;;;;;;;;;5366544;26;19940;-70
2024/04/20 10:03:11;;;;;;;;;;;;;;;;;;5366586;26;19953;-71
2024/04/20 10:05:37;;;;;;;;;;;;;;;;;;5370299;26;20062;-72
2024/04/20 10:08:03;;;;;;;;;;;;;;;;;;5375027;26;19925;-70
2024/04/20 10:10:29;;;;;;;;;;;;;;;;;;5369561;26;19939;-70
2024/04/20 10:12:59;;;;;;;;;;;;;;;;;;5364227;26;20510;-70
2024/04/20 10:15:25;;;;;;;;;;;;;;;;;;5371977;26;20497;-70
2024/04/20 10:17:51;;;;;;;;;;;;;;;;;;5371131;26;19939;-72
2024/04/20 10:20:17;;;;;;;;;;;;;;;;;;5364478;26;19998;-72
2024/04/20 10:22:43;;;;;;;;;;;;;;;;;;5356371;26;19933;-72
2024/04/20 10:25:14;;;;;;;;;;;;;;;;;;5365761;26;19983;-72
2024/04/20 10:27:40;;;;;;;;;;;;;;;;;;5362872;26;20924;-72
2024/04/20 10:30:06;;;;;;;;;;;;;;;;;;5350337;26;19939;-72
2024/04/20 10:32:31;;;;;;;;;;;;;;;;;;5367117;26;19925;-71
2024/04/20 10:34:57;;;;;;;;;;;;;;;;;;5375486;26;19933;-72
2024/04/20 10:37:23;;;;;;;;;;;;;;;;;;5358286;26;19940;-72
2024/04/20 10:39:49;;;;;;;;;;;;;;;;;;5367048;26;20832;-70
2024/04/20 10:42:15;;;;;;;;;;;;;;;;;;5369526;26;19937;-70
2024/04/20 10:44:41;;;;;;;;;;;;;;;;;;5361227;26;19940;-70
2024/04/20 10:47:07;;;;;;;;;;;;;;;;;;5355750;26;20533;-70
2024/04/20 10:49:33;;;;;;;;;;;;;;;;;;5371526;26;19925;-70
2024/04/20 10:51:59;;;;;;;;;;;;;;;;;;5367059;26;19924;-70
2024/04/20 10:54:25;;;;;;;;;;;;;;;;;;5365294;26;19924;-70
2024/04/20 10:56:53;;;;;;;;;;;;;;;;;;5359658;26;19924;-70
2024/04/20 10:59:20;;;;;;;;;;;;;;;;;;5368668;26;19932;-70
2024/04/20 11:01:45;;;;;;;;;;;;;;;;;;5362945;26;19932;-69
2024/04/20 11:04:11;;;;;;;;;;;;;;;;;;5369227;26;20002;-69
2024/04/20 11:06:37;;;;;;;;;;;;;;;;;;5375681;26;19940;-70
2024/04/20 11:09:04;;;;;;;;;;;;;;;;;;5362558;26;20002;-70
2024/04/20 11:11:30;;;;;;;;;;;;;;;;;;5365251;26;20523;-70
2024/04/20 11:13:56;;;;;;;;;;;;;;;;;;5361463;26;20029;-69
2024/04/20 11:16:21;;;;;;;;;;;;;;;;;;5373470;26;20714;-70
2024/04/20 11:18:47;;;;;;;;;;;;;;;;;;5348164;26;19932;-71
2024/04/20 11:21:14;;;;;;;;;;;;;;;;;;5362000;26;19993;-70
2024/04/20 11:23:40;;;;;;;;;;;;;;;;;;5375942;26;20483;-69
2024/04/20 11:26:05;;;;;;;;;;;;;;;;;;5352473;26;19932;-68
2024/04/20 11:28:31;;;;;;;;;;;;;;;;;;5374825;26;20284;-70
2024/04/20 11:30:58;;;;;;;;;;;;;;;;;;5359119;26;19933;-70
2024/04/20 11:33:24;;;;;;;;;;;;;;;;;;5370678;26;20662;-68
2024/04/20 11:35:50;;;;;;;;;;;;;;;;;;5359833;26;19933;-69
2024/04/20 11:38:16;;;;;;;;;;;;;;;;;;5341344;26;20723;-70
2024/04/20 11:40:42;;;;;;;;;;;;;;;;;;5367150;26;19932;-70
2024/04/20 11:43:08;;;;;;;;;;;;;;;;;;5370029;26;19941;-69
2024/04/20 11:45:34;;;;;;;;;;;;;;;;;;5371264;26;19933;-69
2024/04/20 11:48:00;;;;;;;;;;;;;;;;;;5356967;26;21022;-69
2024/04/20 11:50:26;;;;;;;;;;;;;;;;;;5392542;26;19937;-69
2024/04/20 11:55:36;;;;;;;;;;;;;;;;;;5368472;26;19946;-71
2024/04/20 11:58:02;;;;;;;;;;;;;;;;;;5361763;26;19933;-71
2024/04/20 12:00:30;;;;;;;;;;;;;;;;;;5361418;26;20386;-71
2024/04/20 12:02:56;;;;;;;;;;;;;;;;;;5386503;26;19948;-71
2024/04/20 12:05:22;;;;;;;;;;;;;;;;;;5389405;26;19937;-72
2024/04/20 12:07:48;;;;;;;;;;;;;;;;;;5377766;26;19974;-71
2024/04/20 12:10:14;;;;;;;;;;;;;;;;;;5368637;26;19925;-71
2024/04/20 12:12:40;;;;;;;;;;;;;;;;;;5378902;26;19959;-71
2024/04/20 12:15:07;;;;;;;;;;;;;;;;;;5354058;26;19932;-72
2024/04/20 12:17:34;;;;;;;;;;;;;;;;;;5367622;26;20314;-71
2024/04/20 12:20:00;;;;;;;;;;;;;;;;;;5370813;26;19924;-72
2024/04/20 12:22:30;;;;;;;;;;;;;;;;;;5359784;26;20009;-72
2024/04/20 12:24:56;;;;;;;;;;;;;;;;;;5361006;26;19925;-72
2024/04/20 12:27:22;;;;;;;;;;;;;;;;;;5371482;26;19924;-72
2024/04/20 12:29:49;;;;;;;;;;;;;;;;;;5361589;26;19964;-72
2024/04/20 12:32:15;;;;;;;;;;;;;;;;;;5386726;26;19940;-75
2024/04/20 12:34:41;;;;;;;;;;;;;;;;;;5359655;26;20491;-75
2024/04/20 12:37:07;;;;;;;;;;;;;;;;;;5354297;26;20011;-68
2024/04/20 12:39:33;;;;;;;;;;;;;;;;;;5372069;26;19925;-70
2024/04/20 12:41:59;;;;;;;;;;;;;;;;;;5368779;26;19933;-70
2024/04/20 12:44:25;;;;;;;;;;;;;;;;;;5359411;26;20054;-70
2024/04/20 12:46:51;;;;;;;;;;;;;;;;;;5368330;26;19940;-71
2024/04/20 12:49:17;;;;;;;;;;;;;;;;;;5358400;26;19944;-69
2024/04/20 12:51:43;;;;;;;;;;;;;;;;;;5366611;26;20398;-69
2024/04/20 12:54:11;;;;;;;;;;;;;;;;;;5362689;26;19933;-67
2024/04/20 12:56:37;;;;;;;;;;;;;;;;;;5376787;26;19932;-70
2024/04/20 12:59:03;;;;;;;;;;;;;;;;;;5364916;26;19932;-68
2024/04/20 13:01:29;;;;;;;;;;;;;;;;;;5365740;26;19925;-69
2024/04/20 13:03:55;;;;;;;;;;;;;;;;;;5372873;26;19995;-73
2024/04/20 13:06:27;;;;;;;;;;;;;;;;;;5363121;26;23056;-71
2024/04/20 13:08:52;;;;;;;;;;;;;;;;;;5381780;26;19924;-78
2024/04/20 13:11:18;;;;;;;;;;;;;;;;;;5367908;26;20262;-77
2024/04/20 13:13:44;;;;;;;;;;;;;;;;;;5372945;26;19925;-76
2024/04/20 13:16:10;;;;;;;;;;;;;;;;;;5349833;26;19949;-78
2024/04/20 13:18:37;;;;;;;;;;;;;;;;;;5347280;26;20908;-77
2024/04/20 13:21:03;;;;;;;;;;;;;;;;;;5353907;26;20387;-77
2024/04/20 13:23:29;;;;;;;;;;;;;;;;;;5375879;26;19932;-76
2024/04/20 13:25:55;;;;;;;;;;;;;;;;;;5358110;26;20026;-77
2024/04/20 13:28:22;;;;;;;;;;;;;;;;;;5359715;26;20010;-76
2024/04/20 13:30:48;;;;;;;;;;;;;;;;;;5394670;26;19937;-76
2024/04/20 13:33:15;;;;;;;;;;;;;;;;;;5373117;26;19932;-72
2024/04/20 13:35:41;;;;;;;;;;;;;;;;;;5371289;26;19937;-70
2024/04/20 13:38:07;;;;;;;;;;;;;;;;;;5382158;26;19932;-73
2024/04/20 13:40:33;;;;;;;;;;;;;;;;;;5371436;26;19924;-71
2024/04/20 13:42:59;;;;;;;;;;;;;;;;;;5372903;26;20001;-72
2024/04/20 13:45:25;;;;;;;;;;;;;;;;;;5361564;26;20904;-72
2024/04/20 13:47:51;;;;;;;;;;;;;;;;;;5347148;26;19926;-71
2024/04/20 13:50:17;;;;;;;;;;;;;;;;;;5362011;26;20029;-72
2024/04/20 13:52:44;;;;;;;;;;;;;;;;;;5375458;26;20912;-71
2024/04/20 13:55:10;;;;;;;;;;;;;;;;;;5368266;26;19932;-71
2024/04/20 13:57:36;;;;;;;;;;;;;;;;;;5359858;26;19925;-70
2024/04/20 14:00:02;;;;;;;;;;;;;;;;;;5359375;26;19925;-70
2024/04/20 14:02:28;;;;;;;;;;;;;;;;;;5344944;26;19937;-70
2024/04/20 14:04:53;;;;;;;;;;;;;;;;;;5346587;26;20506;-72
2024/04/20 14:07:19;;;;;;;;;;;;;;;;;;5369815;26;19952;-70
2024/04/20 14:09:45;;;;;;;;;;;;;;;;;;5375913;26;20853;-72
2024/04/20 14:12:11;;;;;;;;;;;;;;;;;;5354714;26;19939;-70
2024/04/20 14:14:37;;;;;;;;;;;;;;;;;;5359651;26;19925;-70
2024/04/20 14:17:03;;;;;;;;;;;;;;;;;;5352206;26;19932;-70
2024/04/20 14:19:29;;;;;;;;;;;;;;;;;;5351279;26;19924;-68
2024/04/20 14:21:55;;;;;;;;;;;;;;;;;;5356571;26;20445;-72
2024/04/20 14:24:21;;;;;;;;;;;;;;;;;;5342417;26;20018;-71
2024/04/20 14:26:47;;;;;;;;;;;;;;;;;;5360239;26;19950;-71
2024/04/20 14:29:13;;;;;;;;;;;;;;;;;;5345035;26;21642;-71
2024/04/20 14:31:39;;;;;;;;;;;;;;;;;;5355161;26;20429;-71
2024/04/20 14:34:05;;;;;;;;;;;;;;;;;;5357309;26;21484;-71
2024/04/20 14:36:31;;;;;;;;;;;;;;;;;;5372149;26;19937;-71
2024/04/20 14:38:57;;;;;;;;;;;;;;;;;;5356539;26;20616;-74
2024/04/20 14:41:23;;;;;;;;;;;;;;;;;;5370552;26;19932;-71
2024/04/20 14:43:49;;;;;;;;;;;;;;;;;;5362803;26;19935;-72
2024/04/20 14:46:15;;;;;;;;;;;;;;;;;;5361917;26;20063;-73
2024/04/20 14:48:41;;;;;;;;;;;;;;;;;;5364303;26;19932;-70
2024/04/20 14:51:07;;;;;;;;;;;;;;;;;;5360086;26;20411;-66
2024/04/20 14:53:33;;;;;;;;;;;;;;;;;;5348927;26;19939;-66
2024/04/20 14:55:59;;;;;;;;;;;;;;;;;;5348314;26;21052;-66
2024/04/20 14:58:25;;;;;;;;;;;;;;;;;;5365261;26;19945;-65
2024/04/20 15:00:51;;;;;;;;;;;;;;;;;;5369739;26;19944;-66
2024/04/20 15:03:17;;;;;;;;;;;;;;;;;;5345104;26;19945;-66
2024/04/20 15:05:43;;;;;;;;;;;;;;;;;;5353171;26;20940;-65
2024/04/20 15:08:09;;;;;;;;;;;;;;;;;;5344676;26;20395;-69
2024/04/20 15:10:35;;;;;;;;;;;;;;;;;;5365055;26;22026;-67
2024/04/20 15:13:01;;;;;;;;;;;;;;;;;;5359317;26;20012;-66
2024/04/20 15:15:27;;;;;;;;;;;;;;;;;;5365824;26;19940;-65
2024/04/20 15:17:53;;;;;;;;;;;;;;;;;;5349418;26;19933;-65
2024/04/20 15:20:19;;;;;;;;;;;;;;;;;;5348919;26;19932;-64
2024/04/20 15:22:44;;;;;;;;;;;;;;;;;;5337073;26;19939;-65
2024/04/20 15:25:12;;;;;;;;;;;;;;;;;;5354736;26;21077;-65
2024/04/20 15:27:38;;;;;;;;;;;;;;;;;;5362996;26;19959;-70
2024/04/20 15:30:04;;;;;;;;;;;;;;;;;;5340315;26;19932;-69
2024/04/20 15:32:30;;;;;;;;;;;;;;;;;;5358063;26;19932;-69
2024/04/20 15:34:56;;;;;;;;;;;;;;;;;;5346682;26;19932;-68
2024/04/20 15:37:23;;;;;;;;;;;;;;;;;;5348194;26;20064;-69
2024/04/20 15:39:49;;;;;;;;;;;;;;;;;;5340197;26;19932;-66
2024/04/20 15:42:15;;;;;;;;;;;;;;;;;;5359230;26;22596;-69
2024/04/20 15:44:44;;;;;;;;;;;;;;;;;;5350022;26;19949;-69
2024/04/20 15:47:10;;;;;;;;;;;;;;;;;;5345540;26;19949;-68
2024/04/20 15:49:36;;;;;;;;;;;;;;;;;;5360268;26;19939;-70
2024/04/20 15:52:02;;;;;;;;;;;;;;;;;;5359933;26;20565;-69
2024/04/20 15:54:28;;;;;;;;;;;;;;;;;;5343323;26;20029;-69
2024/04/20 15:56:54;;;;;;;;;;;;;;;;;;5376761;26;19936;-68
2024/04/20 15:59:20;;;;;;;;;;;;;;;;;;5352401;26;19936;-69
2024/04/20 16:01:46;;;;;;;;;;;;;;;;;;5361796;26;19940;-71
2024/04/20 16:04:12;;;;;;;;;;;;;;;;;;5355494;26;19925;-70
2024/04/20 16:06:38;;;;;;;;;;;;;;;;;;5343618;26;19993;-70
2024/04/20 16:09:04;;;;;;;;;;;;;;;;;;5351468;26;19963;-70
2024/04/20 16:11:30;;;;;;;;;;;;;;;;;;5362617;26;19929;-72
2024/04/20 16:13:56;;;;;;;;;;;;;;;;;;5349632;26;19936;-70
2024/04/20 16:16:22;;;;;;;;;;;;;;;;;;5359682;26;19967;-70
2024/04/20 16:18:48;;;;;;;;;;;;;;;;;;5379656;26;19944;-70
2024/04/20 16:21:14;;;;;;;;;;;;;;;;;;5354785;26;20549;-67
2024/04/20 16:23:40;;;;;;;;;;;;;;;;;;5366790;26;19940;-67
2024/04/20 16:26:06;;;;;;;;;;;;;;;;;;5355666;26;19924;-67
2024/04/20 16:28:33;;;;;;;;;;;;;;;;;;5359845;26;19924;-67
2024/04/20 16:30:59;;;;;;;;;;;;;;;;;;5362809;26;19936;-68
2024/04/20 16:33:25;;;;;;;;;;;;;;;;;;5366677;26;19926;-67
2024/04/20 16:35:51;;;;;;;;;;;;;;;;;;5366113;26;19931;-67
2024/04/20 16:38:17;;;;;;;;;;;;;;;;;;5355687;26;21069;-68
2024/04/20 16:40:43;;;;;;;;;;;;;;;;;;5372461;26;19965;-68